createdAt,value
2022-09-13T00:01:39.459Z,61.50
2022-09-13T00:04:08.707Z,62.01
2022-09-13T00:06:36.163Z,61.03
2022-09-13T00:09:03.559Z,61.51
2022-09-13T00:11:31.626Z,61.44
2022-09-13T00:13:59.519Z,62.70
2022-09-13T00:16:28.515Z,63.13
2022-09-13T00:18:56.518Z,61.97
2022-09-13T00:21:25.136Z,61.22
2022-09-13T00:23:53.672Z,63.07
2022-09-13T00:26:28.287Z,63.10
2022-09-13T00:28:57.819Z,62.31
2022-09-13T00:31:27.632Z,62.55
2022-09-13T00:33:55.787Z,62.67
2022-09-13T00:36:23.116Z,62.62
2022-09-13T00:38:51.703Z,62.77
2022-09-13T00:41:20.901Z,64.89
2022-09-13T00:43:57.236Z,65.30
2022-09-13T00:46:34.519Z,63.80
2022-09-13T00:49:19.690Z,63.12
2022-09-13T00:51:55.470Z,63.13
2022-09-13T00:54:24.479Z,61.76
2022-09-13T00:56:55.317Z,62.15
2022-09-13T00:59:26.647Z,62.35
2022-09-13T01:01:56.335Z,63.62
2022-09-13T01:04:27.851Z,63.36
2022-09-13T01:06:59.141Z,64.41
2022-09-13T01:09:26.902Z,64.21
2022-09-13T01:12:15.288Z,63.67
2022-09-13T01:14:43.769Z,63.74
2022-09-13T01:17:11.099Z,63.10
2022-09-13T01:19:38.573Z,62.94
2022-09-13T01:22:24.237Z,63.17
2022-09-13T01:25:00.387Z,64.23
2022-09-13T01:27:40.112Z,65.01
2022-09-13T01:30:18.059Z,64.44
2022-09-13T01:32:52.964Z,63.50
2022-09-13T01:35:27.907Z,63.65
2022-09-13T01:38:26.734Z,62.97
2022-09-13T01:41:13.192Z,63.31
2022-09-13T01:43:48.184Z,64.51
2022-09-13T01:46:23.874Z,64.76
2022-09-13T01:48:57.758Z,65.18
2022-09-13T01:51:28.597Z,64.88
2022-09-13T01:54:18.073Z,64.88
2022-09-13T01:56:54.431Z,65.31
2022-09-13T01:59:51.843Z,64.30
2022-09-13T02:02:28.651Z,63.10
2022-09-13T02:05:01.314Z,63.02
2022-09-13T02:07:34.085Z,62.70
2022-09-13T02:10:07.633Z,64.14
2022-09-13T02:12:36.615Z,65.87
2022-09-13T02:15:12.676Z,64.78
2022-09-13T02:17:44.904Z,63.01
2022-09-13T02:20:26.930Z,63.04
2022-09-13T02:22:57.219Z,63.37
2022-09-13T02:25:26.384Z,62.91
2022-09-13T02:27:58.882Z,64.03
2022-09-13T02:30:28.426Z,63.06
2022-09-13T02:33:02.883Z,62.47
2022-09-13T02:35:37.217Z,64.45
2022-09-13T02:38:17.868Z,64.67
2022-09-13T02:40:55.840Z,63.75
2022-09-13T02:43:28.590Z,65.51
2022-09-13T02:46:12.609Z,64.11
2022-09-13T02:49:01.158Z,63.42
2022-09-13T02:51:33.597Z,62.47
2022-09-13T02:54:19.549Z,63.40
2022-09-13T02:56:55.762Z,63.13
2022-09-13T02:59:24.138Z,63.79
2022-09-13T03:02:11.152Z,64.26
2022-09-13T03:04:38.492Z,63.83
2022-09-13T03:07:13.577Z,64.77
2022-09-13T03:09:46.549Z,65.02
2022-09-13T03:12:38.540Z,65.05
2022-09-13T03:15:20.753Z,64.17
2022-09-13T03:18:03.653Z,64.03
2022-09-13T03:20:51.186Z,63.80
2022-09-13T03:23:27.594Z,64.78
2022-09-13T03:26:19.692Z,65.01
2022-09-13T03:29:02.427Z,66.77
2022-09-13T03:31:50.445Z,66.84
2022-09-13T03:34:42.845Z,65.75
2022-09-13T03:37:34.063Z,65.83
2022-09-13T03:40:15.783Z,63.34
2022-09-13T03:42:48.524Z,63.24
2022-09-13T03:45:19.048Z,64.31
2022-09-13T03:47:48.626Z,63.61
2022-09-13T03:50:19.773Z,65.69
2022-09-13T03:52:49.086Z,64.48
2022-09-13T03:55:19.601Z,66.61
2022-09-13T03:57:47.252Z,65.68
2022-09-13T04:00:15.319Z,67.72
2022-09-13T04:02:42.883Z,67.29
2022-09-13T04:05:10.297Z,67.46
2022-09-13T04:07:37.620Z,67.49
2022-09-13T04:10:06.136Z,65.59
2022-09-13T04:12:33.455Z,64.20
2022-09-13T04:15:00.836Z,64.93
2022-09-13T04:17:28.412Z,64.93
2022-09-13T04:19:55.768Z,66.17
2022-09-13T04:22:23.095Z,66.36
2022-09-13T04:24:52.887Z,66.17
2022-09-13T04:27:20.276Z,66.11
2022-09-13T04:29:47.582Z,66.83
2022-09-13T04:32:15.280Z,65.68
2022-09-13T04:34:42.611Z,64.71
2022-09-13T04:37:09.928Z,66.41
2022-09-13T04:39:37.523Z,66.70
2022-09-13T04:42:05.322Z,66.29
2022-09-13T04:44:33.454Z,64.73
2022-09-13T04:47:01.073Z,63.99
2022-09-13T04:49:28.482Z,63.40
2022-09-13T04:51:55.814Z,64.35
2022-09-13T04:54:23.429Z,65.15
2022-09-13T04:56:50.728Z,64.63
2022-09-13T04:59:18.034Z,65.39
2022-09-13T05:01:45.727Z,66.94
2022-09-13T05:04:13.165Z,67.16
2022-09-13T05:06:40.743Z,67.91
2022-09-13T05:09:13.548Z,66.99
2022-09-13T05:11:41.347Z,66.64
2022-09-13T05:14:12.173Z,66.07
2022-09-13T05:16:39.711Z,65.98
2022-09-13T05:19:07.110Z,64.83
2022-09-13T05:21:34.690Z,64.76
2022-09-13T05:24:02.204Z,65.04
2022-09-13T05:26:33.847Z,64.77
2022-09-13T05:29:01.594Z,64.44
2022-09-13T05:31:31.814Z,65.08
2022-09-13T05:34:21.305Z,62.94
2022-09-13T05:36:54.194Z,59.98
2022-09-13T05:39:36.527Z,58.46
2022-09-13T05:42:07.281Z,57.70
2022-09-13T05:44:34.595Z,57.35
2022-09-13T05:47:01.901Z,56.37
2022-09-13T05:49:29.473Z,56.48
2022-09-13T05:51:56.774Z,55.71
2022-09-13T05:54:24.084Z,55.80
2022-09-13T05:56:52.806Z,55.37
2022-09-13T05:59:20.105Z,55.03
2022-09-13T06:01:48.418Z,56.67
2022-09-13T06:04:16.052Z,54.66
2022-09-13T06:06:43.399Z,55.64
2022-09-13T06:09:11.653Z,58.55
2022-09-13T06:11:39.302Z,55.04
2022-09-13T06:14:06.662Z,54.50
2022-09-13T06:16:34.123Z,53.84
2022-09-13T06:19:02.055Z,53.58
2022-09-13T06:21:29.637Z,55.68
2022-09-13T06:23:57.052Z,54.15
2022-09-13T06:26:26.523Z,52.18
2022-09-13T06:28:56.340Z,52.63
2022-09-13T06:31:25.902Z,52.11
2022-09-13T06:33:59.181Z,49.73
2022-09-13T06:36:26.699Z,52.46
2022-09-13T06:38:54.402Z,51.42
2022-09-13T06:41:23.629Z,53.44
2022-09-13T06:44:01.734Z,53.03
2022-09-13T06:46:34.065Z,50.18
2022-09-13T06:49:03.933Z,51.62
2022-09-13T06:51:32.660Z,52.96
2022-09-13T06:54:00.344Z,53.36
2022-09-13T06:56:29.859Z,47.69
2022-09-13T06:58:59.791Z,47.26
2022-09-13T07:01:32.078Z,47.22
2022-09-13T07:04:03.526Z,45.33
2022-09-13T07:06:36.034Z,44.86
2022-09-13T07:09:05.883Z,43.85
2022-09-13T07:11:35.285Z,43.73
2022-09-13T07:14:03.375Z,43.48
2022-09-13T07:16:32.574Z,43.56
2022-09-13T07:19:01.587Z,42.66
2022-09-13T07:21:29.265Z,42.50
2022-09-13T07:23:57.418Z,43.37
2022-09-13T07:26:27.511Z,42.85
2022-09-13T07:28:56.935Z,43.80
2022-09-13T07:31:26.993Z,42.80
2022-09-13T07:34:02.976Z,43.45
2022-09-13T07:36:31.647Z,44.00
2022-09-13T07:38:59.378Z,43.21
2022-09-13T07:41:28.313Z,42.45
2022-09-13T07:43:56.815Z,41.93
2022-09-13T07:46:26.236Z,42.45
2022-09-13T07:48:55.971Z,42.70
2022-09-13T07:51:25.852Z,43.40
2022-09-13T07:53:57.650Z,43.44
2022-09-13T07:56:27.906Z,42.15
2022-09-13T07:58:55.780Z,42.28
2022-09-13T08:01:25.087Z,41.90
2022-09-13T08:03:57.225Z,43.14
2022-09-13T08:06:26.219Z,44.21
2022-09-13T08:08:54.156Z,43.39
2022-09-13T08:11:24.200Z,44.82
2022-09-13T08:13:52.311Z,43.13
2022-09-13T08:16:21.577Z,42.73
2022-09-13T08:18:51.090Z,42.62
2022-09-13T08:21:18.913Z,43.78
2022-09-13T08:23:46.999Z,42.52
2022-09-13T08:26:14.462Z,42.04
2022-09-13T08:28:42.938Z,44.17
2022-09-13T08:31:13.999Z,41.61
2022-09-13T08:33:46.479Z,42.88
2022-09-13T08:36:15.879Z,41.69
2022-09-13T08:38:48.300Z,42.83
2022-09-13T08:41:37.841Z,42.62
2022-09-13T08:44:28.070Z,41.92
2022-09-13T08:46:59.393Z,41.29
2022-09-13T08:49:32.395Z,39.60
2022-09-13T08:52:05.692Z,40.21
2022-09-13T08:54:35.285Z,41.61
2022-09-13T08:57:18.152Z,40.73
2022-09-13T09:00:20.845Z,40.19
2022-09-13T09:02:55.094Z,40.86
2022-09-13T09:05:24.571Z,39.69
2022-09-13T09:08:12.326Z,40.00
2022-09-13T09:10:47.017Z,39.05
2022-09-13T09:13:24.628Z,41.26
2022-09-13T09:16:02.158Z,40.54
2022-09-13T09:18:33.660Z,39.47
2022-09-13T09:21:02.066Z,39.34
2022-09-13T09:23:39.412Z,38.01
2022-09-13T09:26:20.113Z,36.57
2022-09-13T09:28:58.189Z,38.26
2022-09-13T09:31:37.593Z,36.31
2022-09-13T09:34:14.566Z,36.57
2022-09-13T09:36:51.055Z,36.93
2022-09-13T09:39:18.647Z,37.55
2022-09-13T09:41:46.354Z,35.80
2022-09-13T09:44:19.197Z,37.76
2022-09-13T09:46:51.020Z,36.87
2022-09-13T09:49:53.674Z,37.85
2022-09-13T09:52:29.911Z,37.61
2022-09-13T09:55:02.864Z,37.14
2022-09-13T09:57:49.804Z,37.20
2022-09-13T10:00:17.569Z,37.35
2022-09-13T10:02:45.917Z,38.67
2022-09-13T10:05:19.755Z,36.11
2022-09-13T10:07:55.816Z,37.81
2022-09-13T10:10:26.503Z,36.55
2022-09-13T10:12:59.754Z,38.16
2022-09-13T10:15:32.748Z,37.62
2022-09-13T10:18:16.784Z,36.67
2022-09-13T10:21:02.947Z,37.33
2022-09-13T10:23:34.076Z,37.75
2022-09-13T10:26:02.439Z,37.83
2022-09-13T10:28:31.409Z,38.76
2022-09-13T10:31:02.030Z,36.86
2022-09-13T10:33:32.568Z,36.87
2022-09-13T10:36:07.531Z,36.71
2022-09-13T10:38:41.794Z,35.79
2022-09-13T10:41:22.007Z,35.87
2022-09-13T10:43:49.782Z,35.23
2022-09-13T10:46:22.749Z,34.84
2022-09-13T10:48:57.178Z,33.81
2022-09-13T10:51:27.373Z,33.84
2022-09-13T10:54:20.123Z,36.19
2022-09-13T10:56:48.473Z,34.29
2022-09-13T10:59:30.808Z,35.25
2022-09-13T11:02:07.130Z,34.71
2022-09-13T11:04:40.111Z,33.97
2022-09-13T11:07:20.815Z,35.22
2022-09-13T11:10:14.644Z,37.41
2022-09-13T11:13:00.852Z,37.44
2022-09-13T11:15:36.944Z,37.33
2022-09-13T11:18:29.793Z,35.63
2022-09-13T11:21:15.535Z,35.41
2022-09-13T11:24:10.773Z,33.58
2022-09-13T11:26:56.848Z,33.25
2022-09-13T11:29:54.145Z,31.66
2022-09-13T11:32:43.503Z,33.21
2022-09-13T11:35:48.810Z,33.27
2022-09-13T11:38:43.140Z,31.44
2022-09-13T11:41:38.541Z,32.40
2022-09-13T11:44:27.600Z,32.53
2022-09-13T11:47:16.799Z,33.62
2022-09-13T11:50:04.175Z,33.44
2022-09-13T11:53:04.635Z,34.72
2022-09-13T11:55:48.270Z,32.77
2022-09-13T11:58:21.895Z,34.20
2022-09-13T12:00:53.507Z,35.96
2022-09-13T12:03:58.502Z,34.73
2022-09-13T12:06:30.378Z,34.32
2022-09-13T12:09:03.365Z,34.34
2022-09-13T12:11:33.985Z,33.61
2022-09-13T12:14:04.637Z,32.23
2022-09-13T12:16:36.509Z,36.07
2022-09-13T12:19:24.035Z,32.24
2022-09-13T12:22:00.126Z,37.44
2022-09-13T12:24:50.762Z,34.73
2022-09-13T12:27:52.192Z,35.71
2022-09-13T12:30:21.846Z,33.08
2022-09-13T12:32:49.911Z,36.36
2022-09-13T12:35:27.058Z,34.14
2022-09-13T12:38:30.743Z,33.56
2022-09-13T12:41:23.474Z,32.71
2022-09-13T12:44:18.572Z,32.13
2022-09-13T12:46:55.351Z,32.15
2022-09-13T12:49:46.327Z,32.32
2022-09-13T12:52:21.319Z,33.21
2022-09-13T12:55:05.027Z,33.26
2022-09-13T12:57:46.633Z,33.87
2022-09-13T13:00:32.383Z,35.81
2022-09-13T13:03:12.064Z,35.76
2022-09-13T13:05:43.492Z,34.47
2022-09-13T13:08:19.943Z,35.42
2022-09-13T13:11:04.672Z,35.47
2022-09-13T13:13:40.450Z,35.44
2022-09-13T13:16:27.972Z,32.91
2022-09-13T13:18:57.466Z,33.40
2022-09-13T13:21:39.883Z,35.12
2022-09-13T13:24:16.301Z,34.10
2022-09-13T13:26:47.930Z,35.71
2022-09-13T13:29:15.802Z,35.01
2022-09-13T13:32:07.724Z,34.19
2022-09-13T13:34:41.431Z,35.35
2022-09-13T13:37:08.783Z,33.44
2022-09-13T13:39:39.816Z,33.20
2022-09-13T13:42:16.168Z,32.72
2022-09-13T13:44:43.720Z,35.26
2022-09-13T13:47:14.376Z,32.15
2022-09-13T13:49:41.577Z,33.86
2022-09-13T13:52:09.135Z,35.34
2022-09-13T13:54:42.535Z,33.96
2022-09-13T13:57:33.751Z,33.98
2022-09-13T14:00:13.381Z,33.42
2022-09-13T14:02:49.281Z,34.88
2022-09-13T14:05:54.725Z,33.84
2022-09-13T14:08:22.010Z,33.40
2022-09-13T14:11:11.308Z,33.55
2022-09-13T14:14:33.034Z,35.08
2022-09-13T14:17:18.562Z,33.64
2022-09-13T14:19:50.559Z,33.31
2022-09-13T14:22:21.042Z,34.35
2022-09-13T14:24:50.022Z,35.44
2022-09-13T14:27:21.954Z,35.44
2022-09-13T14:29:55.334Z,34.36
2022-09-13T14:32:25.533Z,34.59
2022-09-13T14:35:01.997Z,34.68
2022-09-13T14:37:35.434Z,36.25
2022-09-13T14:40:17.125Z,34.76
2022-09-13T14:42:47.411Z,34.24
2022-09-13T14:45:20.481Z,34.90
2022-09-13T14:48:00.829Z,34.89
2022-09-13T14:50:37.708Z,34.99
2022-09-13T14:53:07.900Z,34.24
2022-09-13T14:55:42.546Z,34.85
2022-09-13T14:58:35.087Z,34.37
2022-09-13T15:01:05.933Z,32.90
2022-09-13T15:03:33.806Z,32.57
2022-09-13T15:06:02.883Z,33.66
2022-09-13T15:08:33.237Z,35.41
2022-09-13T15:11:02.812Z,35.13
2022-09-13T15:13:30.332Z,35.14
2022-09-13T15:15:57.895Z,34.21
2022-09-13T15:18:36.240Z,36.11
2022-09-13T15:21:06.358Z,36.99
2022-09-13T15:23:43.151Z,36.42
2022-09-13T15:26:32.164Z,35.79
2022-09-13T15:29:05.606Z,36.17
2022-09-13T15:31:34.970Z,36.59
2022-09-13T15:34:18.781Z,36.05
2022-09-13T15:36:47.423Z,37.03
2022-09-13T15:39:20.114Z,38.04
2022-09-13T15:41:57.730Z,37.48
2022-09-13T15:44:25.655Z,36.27
2022-09-13T15:46:59.895Z,36.30
2022-09-13T15:49:28.247Z,37.26
2022-09-13T15:52:01.570Z,37.23
2022-09-13T15:54:49.394Z,39.48
2022-09-13T15:57:24.955Z,38.44
2022-09-13T15:59:54.227Z,38.26
2022-09-13T16:02:25.748Z,38.19
2022-09-13T16:04:53.892Z,38.25
2022-09-13T16:07:22.040Z,39.00
2022-09-13T16:09:49.774Z,38.80
2022-09-13T16:12:18.974Z,39.46
2022-09-13T16:14:47.641Z,39.53
2022-09-13T16:17:22.948Z,40.25
2022-09-13T16:19:50.779Z,39.31
2022-09-13T16:22:18.131Z,39.44
2022-09-13T16:24:45.482Z,40.44
2022-09-13T16:27:14.653Z,40.61
2022-09-13T16:29:42.382Z,39.73
2022-09-13T16:32:09.865Z,39.17
2022-09-13T16:34:37.535Z,40.58
2022-09-13T16:37:05.197Z,41.46
2022-09-13T16:39:32.588Z,42.54
2022-09-13T16:42:00.221Z,42.04
2022-09-13T16:44:27.523Z,41.48
2022-09-13T16:46:54.897Z,41.51
2022-09-13T16:49:22.528Z,41.83
2022-09-13T16:51:50.064Z,42.16
2022-09-13T16:54:17.512Z,42.80
2022-09-13T16:56:45.171Z,43.58
2022-09-13T16:59:12.536Z,43.11
2022-09-13T17:01:39.963Z,43.75
2022-09-13T17:04:08.173Z,43.30
2022-09-13T17:06:35.771Z,43.18
2022-09-13T17:09:05.524Z,43.86
2022-09-13T17:11:36.841Z,43.97
2022-09-13T17:14:06.854Z,43.59
2022-09-13T17:16:40.720Z,43.58
2022-09-13T17:19:11.860Z,43.97
2022-09-13T17:21:40.058Z,43.03
2022-09-13T17:24:13.145Z,42.85
2022-09-13T17:26:42.445Z,42.46
2022-09-13T17:29:11.447Z,41.99
2022-09-13T17:31:38.863Z,43.23
2022-09-13T17:34:06.609Z,44.64
2022-09-13T17:36:33.961Z,44.95
2022-09-13T17:39:01.311Z,45.06
2022-09-13T17:41:28.877Z,44.65
2022-09-13T17:43:56.189Z,45.25
2022-09-13T17:46:25.891Z,44.84
2022-09-13T17:48:54.410Z,44.04
2022-09-13T17:51:27.735Z,44.17
2022-09-13T17:53:58.699Z,44.31
2022-09-13T17:56:30.369Z,44.77
2022-09-13T17:59:10.244Z,45.01
2022-09-13T18:01:39.610Z,45.05
2022-09-13T18:04:08.631Z,45.57
2022-09-13T18:06:37.131Z,46.51
2022-09-13T18:09:04.844Z,47.40
2022-09-13T18:11:32.749Z,48.12
2022-09-13T18:14:00.282Z,48.12
2022-09-13T18:16:29.702Z,48.05
2022-09-13T18:18:59.084Z,48.29
2022-09-13T18:21:27.805Z,48.11
2022-09-13T18:23:58.441Z,47.17
2022-09-13T18:26:28.707Z,48.13
2022-09-13T18:29:04.529Z,48.92
2022-09-13T18:31:34.686Z,49.18
2022-09-13T18:34:06.221Z,48.88
2022-09-13T18:36:35.234Z,49.76
2022-09-13T18:39:04.915Z,50.30
2022-09-13T18:41:37.261Z,50.12
2022-09-13T18:44:05.310Z,50.33
2022-09-13T18:46:34.727Z,51.48
2022-09-13T18:49:03.434Z,51.97
2022-09-13T18:51:33.760Z,51.75
2022-09-13T18:54:02.339Z,51.60
2022-09-13T18:56:30.001Z,51.22
2022-09-13T18:59:00.227Z,51.32
2022-09-13T19:01:30.546Z,51.78
2022-09-13T19:04:04.724Z,51.80
2022-09-13T19:06:38.183Z,51.85
2022-09-13T19:09:06.906Z,51.69
2022-09-13T19:11:47.400Z,51.62
2022-09-13T19:14:24.165Z,52.08
2022-09-13T19:16:53.739Z,51.60
2022-09-13T19:19:22.007Z,51.33
2022-09-13T19:21:50.037Z,51.23
2022-09-13T19:24:19.716Z,51.57
2022-09-13T19:26:51.009Z,50.96
2022-09-13T19:29:22.288Z,51.66
2022-09-13T19:31:52.612Z,52.26
2022-09-13T19:34:22.338Z,52.40
2022-09-13T19:36:53.857Z,51.67
2022-09-13T19:39:25.838Z,52.73
2022-09-13T19:41:57.008Z,53.99
2022-09-13T19:44:24.950Z,54.08
2022-09-13T19:47:15.036Z,53.94
2022-09-13T19:49:42.029Z,55.35
2022-09-13T19:52:09.994Z,54.79
2022-09-13T19:54:37.672Z,55.14
2022-09-13T19:57:07.969Z,55.08
2022-09-13T19:59:36.944Z,54.91
2022-09-13T20:02:05.422Z,54.75
2022-09-13T20:04:33.421Z,55.34
2022-09-13T20:07:01.098Z,56.56
2022-09-13T20:09:30.855Z,55.98
2022-09-13T20:12:00.765Z,56.94
2022-09-13T20:14:28.775Z,56.69
2022-09-13T20:16:57.449Z,56.73
2022-09-13T20:19:43.824Z,57.25
2022-09-13T20:22:13.128Z,57.54
2022-09-13T20:24:41.404Z,56.97
2022-09-13T20:27:12.626Z,56.43
2022-09-13T20:29:40.669Z,56.69
2022-09-13T20:32:09.722Z,55.30
2022-09-13T20:34:39.513Z,56.51
2022-09-13T20:37:07.404Z,57.80
2022-09-13T20:39:35.593Z,57.06
2022-09-13T20:42:03.241Z,58.32
2022-09-13T20:44:30.856Z,60.16
2022-09-13T20:46:59.024Z,59.73
2022-09-13T20:49:26.719Z,59.87
2022-09-13T20:51:54.427Z,60.06
2022-09-13T20:54:22.083Z,59.56
2022-09-13T20:56:49.440Z,58.87
2022-09-13T20:59:16.929Z,60.27
2022-09-13T21:01:44.590Z,59.03
2022-09-13T21:04:12.004Z,58.57
2022-09-13T21:07:00.995Z,58.80
2022-09-13T21:09:28.978Z,58.98
2022-09-13T21:11:56.288Z,58.36
2022-09-13T21:14:23.753Z,57.98
2022-09-13T21:16:51.402Z,57.65
2022-09-13T21:19:18.799Z,57.02
2022-09-13T21:21:46.115Z,57.59
2022-09-13T21:24:13.793Z,60.27
2022-09-13T21:26:42.386Z,59.52
2022-09-13T21:29:11.321Z,58.64
2022-09-13T21:31:39.591Z,57.95
2022-09-13T21:34:15.364Z,57.47
2022-09-13T21:36:43.985Z,56.95
2022-09-13T21:39:12.552Z,56.65
2022-09-13T21:41:40.353Z,58.33
2022-09-13T21:44:08.116Z,59.12
2022-09-13T21:46:36.559Z,59.18
2022-09-13T21:49:05.940Z,60.28
2022-09-13T21:51:48.329Z,60.28
2022-09-13T21:54:18.417Z,60.44
2022-09-13T21:56:51.813Z,62.67
2022-09-13T21:59:20.498Z,61.59
2022-09-13T22:01:51.250Z,60.66
2022-09-13T22:04:22.081Z,62.10
2022-09-13T22:06:53.838Z,59.29
2022-09-13T22:09:23.614Z,58.35
2022-09-13T22:11:50.936Z,58.50
2022-09-13T22:14:21.585Z,58.37
2022-09-13T22:16:52.890Z,60.13
2022-09-13T22:19:23.699Z,59.98
2022-09-13T22:21:55.445Z,60.98
2022-09-13T22:24:24.637Z,59.73
2022-09-13T22:26:54.319Z,59.65
2022-09-13T22:29:22.310Z,59.74
2022-09-13T22:31:50.788Z,58.99
2022-09-13T22:34:21.201Z,59.12
2022-09-13T22:36:48.847Z,59.38
2022-09-13T22:39:17.137Z,59.35
2022-09-13T22:41:45.102Z,60.25
2022-09-13T22:44:12.752Z,61.40
2022-09-13T22:46:42.300Z,59.85
2022-09-13T22:49:17.390Z,59.54
2022-09-13T22:51:45.361Z,60.12
2022-09-13T22:54:14.289Z,59.90
2022-09-13T22:56:42.000Z,60.12
2022-09-13T22:59:13.240Z,61.22
2022-09-13T23:01:41.494Z,61.38
2022-09-13T23:04:09.516Z,61.36
2022-09-13T23:06:37.059Z,61.25
2022-09-13T23:09:07.143Z,61.24
2022-09-13T23:11:36.911Z,60.63
2022-09-13T23:14:12.877Z,60.85
2022-09-13T23:16:43.720Z,60.26
2022-09-13T23:19:13.013Z,61.08
2022-09-13T23:21:41.562Z,60.74
2022-09-13T23:24:12.699Z,60.96
2022-09-13T23:26:40.110Z,59.89
2022-09-13T23:29:07.812Z,60.66
2022-09-13T23:31:38.851Z,61.63
2022-09-13T23:34:07.768Z,63.03
2022-09-13T23:36:37.744Z,63.47
2022-09-13T23:39:07.940Z,61.95
2022-09-13T23:41:35.930Z,61.67
2022-09-13T23:44:03.688Z,63.00
2022-09-13T23:46:31.265Z,61.32
2022-09-13T23:48:59.070Z,61.32
2022-09-13T23:51:26.976Z,61.05
2022-09-13T23:53:56.981Z,61.47
2022-09-13T23:56:25.877Z,62.09
2022-09-13T23:58:53.480Z,61.67
